createdAt,value
2023-09-12T00:00:45.215Z,59.30
2023-09-12T00:03:12.806Z,59.30
2023-09-12T00:05:39.783Z,59.30
2023-09-12T00:08:06.659Z,59.30
2023-09-12T00:10:33.905Z,59.20
2023-09-12T00:13:01.789Z,59.30
2023-09-12T00:15:28.779Z,59.30
2023-09-12T00:17:55.677Z,59.30
2023-09-12T00:20:22.501Z,59.30
2023-09-12T00:22:49.279Z,59.30
2023-09-12T00:25:16.085Z,59.30
2023-09-12T00:27:42.903Z,59.30
2023-09-12T00:30:10.124Z,59.20
2023-09-12T00:32:36.825Z,59.20
2023-09-12T00:35:03.670Z,59.20
2023-09-12T00:37:30.386Z,59.20
2023-09-12T00:39:57.065Z,59.20
2023-09-12T00:42:27.590Z,59.20
2023-09-12T00:44:54.403Z,59.10
2023-09-12T00:47:22.865Z,59.20
2023-09-12T00:49:56.276Z,59.20
2023-09-12T00:52:28.178Z,59.10
2023-09-12T00:54:56.211Z,59.20
2023-09-12T00:57:23.375Z,59.20
2023-09-12T00:59:51.878Z,59.10
2023-09-12T01:02:21.691Z,59.10
2023-09-12T01:04:48.746Z,59.10
2023-09-12T01:07:15.811Z,59.10
2023-09-12T01:09:42.684Z,59.00
2023-09-12T01:12:15.635Z,59.00
2023-09-12T01:14:42.606Z,59.00
2023-09-12T01:17:09.442Z,59.00
2023-09-12T01:19:36.381Z,59.00
2023-09-12T01:22:34.693Z,59.00
2023-09-12T01:25:43.845Z,59.00
2023-09-12T01:28:11.532Z,59.00
2023-09-12T01:30:40.115Z,58.90
2023-09-12T01:33:07.488Z,59.00
2023-09-12T01:35:34.364Z,58.90
2023-09-12T01:38:01.287Z,59.00
2023-09-12T01:40:39.764Z,58.90
2023-09-12T01:43:08.107Z,58.90
2023-09-12T01:45:36.689Z,58.90
2023-09-12T01:48:06.741Z,58.90
2023-09-12T01:50:34.462Z,58.90
2023-09-12T01:53:01.553Z,58.90
2023-09-12T01:55:28.698Z,58.90
2023-09-12T01:57:56.348Z,58.90
2023-09-12T02:00:23.100Z,58.80
2023-09-12T02:02:50.852Z,58.80
2023-09-12T02:05:20.957Z,58.80
2023-09-12T02:07:48.022Z,58.80
2023-09-12T02:10:15.043Z,58.80
2023-09-12T02:12:42.246Z,58.80
2023-09-12T02:15:09.460Z,58.70
2023-09-12T02:17:36.352Z,58.70
2023-09-12T02:20:06.172Z,58.70
2023-09-12T02:22:33.004Z,58.70
2023-09-12T02:24:59.766Z,58.70
2023-09-12T02:27:26.583Z,58.70
2023-09-12T02:29:53.353Z,58.70
2023-09-12T02:32:20.159Z,58.70
2023-09-12T02:34:46.959Z,58.70
2023-09-12T02:37:13.686Z,58.70
2023-09-12T02:39:40.564Z,58.60
2023-09-12T02:42:07.418Z,58.70
2023-09-12T02:44:34.357Z,58.70
2023-09-12T02:47:01.141Z,58.70
2023-09-12T02:49:27.917Z,58.60
2023-09-12T02:51:54.594Z,58.60
2023-09-12T02:54:21.367Z,58.60
2023-09-12T02:56:48.156Z,58.60
2023-09-12T02:59:14.896Z,58.70
2023-09-12T03:01:41.696Z,58.70
2023-09-12T03:04:08.541Z,58.60
2023-09-12T03:06:35.325Z,58.60
2023-09-12T03:09:02.121Z,58.60
2023-09-12T03:11:29.014Z,58.60
2023-09-12T03:13:55.825Z,58.60
2023-09-12T03:16:24.414Z,58.60
2023-09-12T03:18:51.442Z,58.60
2023-09-12T03:21:18.222Z,58.60
2023-09-12T03:23:44.955Z,58.60
2023-09-12T03:26:11.645Z,58.50
2023-09-12T03:28:38.894Z,58.50
2023-09-12T03:31:09.492Z,58.50
2023-09-12T03:33:36.545Z,58.50
2023-09-12T03:36:03.434Z,58.50
2023-09-12T03:38:30.384Z,58.50
2023-09-12T03:40:57.084Z,58.50
2023-09-12T03:43:23.807Z,58.50
2023-09-12T03:45:50.650Z,58.40
2023-09-12T03:48:17.601Z,58.40
2023-09-12T03:50:45.520Z,58.40
2023-09-12T03:53:12.622Z,58.40
2023-09-12T03:55:39.403Z,58.50
2023-09-12T03:58:06.163Z,58.40
2023-09-12T04:00:32.933Z,58.40
2023-09-12T04:02:59.859Z,58.50
2023-09-12T04:05:27.464Z,58.40
2023-09-12T04:07:54.197Z,58.40
2023-09-12T04:10:21.911Z,58.40
2023-09-12T04:12:48.700Z,58.40
2023-09-12T04:15:15.743Z,58.40
2023-09-12T04:17:42.569Z,58.40
2023-09-12T04:20:09.897Z,58.30
2023-09-12T04:22:36.679Z,58.30
2023-09-12T04:25:04.192Z,58.30
2023-09-12T04:27:30.978Z,58.30
2023-09-12T04:29:57.662Z,58.30
2023-09-12T04:32:24.840Z,58.30
2023-09-12T04:34:51.876Z,58.30
2023-09-12T04:37:19.041Z,58.30
2023-09-12T04:39:46.497Z,58.30
2023-09-12T04:42:13.287Z,58.30
2023-09-12T04:44:41.348Z,58.30
2023-09-12T04:47:09.184Z,58.30
2023-09-12T04:49:35.874Z,58.30
2023-09-12T04:52:02.564Z,58.30
2023-09-12T04:54:29.340Z,58.30
2023-09-12T04:56:56.183Z,58.30
2023-09-12T04:59:22.909Z,58.40
2023-09-12T05:01:49.744Z,58.40
2023-09-12T05:04:16.487Z,58.30
2023-09-12T05:06:43.360Z,58.30
2023-09-12T05:09:12.046Z,58.30
2023-09-12T05:11:38.947Z,58.30
2023-09-12T05:14:05.752Z,58.30
2023-09-12T05:16:32.935Z,58.40
2023-09-12T05:18:59.838Z,58.40
2023-09-12T05:21:26.825Z,58.50
2023-09-12T05:23:54.321Z,58.70
2023-09-12T05:26:20.990Z,58.70
2023-09-12T05:28:47.674Z,58.80
2023-09-12T05:31:14.551Z,58.80
2023-09-12T05:33:41.345Z,58.70
2023-09-12T05:36:08.146Z,58.80
2023-09-12T05:38:34.892Z,58.70
2023-09-12T05:41:01.636Z,58.90
2023-09-12T05:43:28.535Z,58.80
2023-09-12T05:45:55.334Z,58.70
2023-09-12T05:48:22.078Z,58.60
2023-09-12T05:50:48.872Z,58.60
2023-09-12T05:53:15.923Z,58.50
2023-09-12T05:55:42.931Z,58.50
2023-09-12T05:58:09.707Z,58.50
2023-09-12T06:00:36.769Z,58.40
2023-09-12T06:03:03.699Z,58.40
2023-09-12T06:05:30.524Z,58.40
2023-09-12T06:07:57.483Z,58.30
2023-09-12T06:10:24.221Z,58.40
2023-09-12T06:12:51.760Z,58.30
2023-09-12T06:15:18.561Z,58.30
2023-09-12T06:17:45.716Z,58.30
2023-09-12T06:20:12.688Z,58.30
2023-09-12T06:22:39.370Z,58.30
2023-09-12T06:25:07.231Z,58.30
2023-09-12T06:27:34.122Z,58.30
2023-09-12T06:30:01.087Z,58.20
2023-09-12T06:32:27.875Z,58.70
2023-09-12T06:34:54.622Z,59.10
2023-09-12T06:37:21.383Z,58.80
2023-09-12T06:39:51.773Z,59.00
2023-09-12T06:42:18.800Z,59.10
2023-09-12T06:44:45.560Z,59.20
2023-09-12T06:47:12.546Z,59.10
2023-09-12T06:49:39.297Z,59.00
2023-09-12T06:52:06.634Z,59.40
2023-09-12T06:54:34.817Z,59.80
2023-09-12T06:57:01.668Z,59.30
2023-09-12T06:59:28.392Z,59.40
2023-09-12T07:01:55.110Z,59.30
2023-09-12T07:04:22.379Z,59.30
2023-09-12T07:06:49.303Z,59.10
2023-09-12T07:09:16.264Z,59.10
2023-09-12T07:11:43.040Z,59.00
2023-09-12T07:14:11.234Z,59.00
2023-09-12T07:16:38.377Z,58.90
2023-09-12T07:19:05.307Z,58.80
2023-09-12T07:21:33.282Z,58.80
2023-09-12T07:24:00.151Z,58.80
2023-09-12T07:26:28.452Z,58.70
2023-09-12T07:28:55.888Z,58.70
2023-09-12T07:31:22.685Z,58.70
2023-09-12T07:33:49.674Z,58.70
2023-09-12T07:36:16.596Z,58.50
2023-09-12T07:38:44.488Z,58.60
2023-09-12T07:41:11.428Z,58.60
2023-09-12T07:43:38.150Z,58.50
2023-09-12T07:46:04.913Z,58.60
2023-09-12T07:48:31.860Z,58.40
2023-09-12T07:50:58.796Z,58.20
2023-09-12T07:53:25.628Z,58.10
2023-09-12T07:55:52.397Z,58.00
2023-09-12T07:58:19.991Z,57.90
2023-09-12T08:00:47.319Z,57.70
2023-09-12T08:03:14.533Z,57.60
2023-09-12T08:05:41.362Z,57.60
2023-09-12T08:08:08.129Z,57.50
2023-09-12T08:10:34.899Z,57.50
2023-09-12T08:13:02.102Z,57.40
2023-09-12T08:15:29.086Z,57.40
2023-09-12T08:17:56.237Z,57.40
2023-09-12T08:20:23.625Z,57.40
2023-09-12T08:22:50.397Z,57.30
2023-09-12T08:25:17.339Z,57.30
2023-09-12T08:27:47.406Z,57.30
2023-09-12T08:30:14.958Z,57.30
2023-09-12T08:32:45.214Z,57.40
2023-09-12T08:35:16.003Z,57.60
2023-09-12T08:37:43.407Z,58.00
2023-09-12T08:40:11.798Z,58.10
2023-09-12T08:42:49.879Z,58.50
2023-09-12T08:45:19.477Z,58.80
2023-09-12T08:47:51.546Z,59.40
2023-09-12T08:50:19.148Z,59.10
2023-09-12T08:53:03.841Z,58.90
2023-09-12T08:55:36.521Z,59.00
2023-09-12T08:58:04.723Z,59.20
2023-09-12T09:00:31.986Z,59.10
2023-09-12T09:03:00.222Z,58.90
2023-09-12T09:05:30.095Z,59.00
2023-09-12T09:07:58.163Z,59.10
2023-09-12T09:10:38.475Z,59.30
2023-09-12T09:13:14.057Z,59.30
2023-09-12T09:15:43.202Z,59.10
2023-09-12T09:18:13.310Z,59.20
2023-09-12T09:20:42.285Z,58.90
2023-09-12T09:23:11.766Z,59.00
2023-09-12T09:25:43.293Z,59.10
2023-09-12T09:28:19.673Z,58.90
2023-09-12T09:30:48.795Z,58.90
2023-09-12T09:33:16.075Z,59.00
2023-09-12T09:35:43.837Z,58.90
2023-09-12T09:38:10.821Z,59.10
2023-09-12T09:40:38.341Z,59.10
2023-09-12T09:43:05.665Z,59.30
2023-09-12T09:45:43.291Z,59.20
2023-09-12T09:48:10.145Z,59.60
2023-09-12T09:50:38.156Z,59.50
2023-09-12T09:53:09.427Z,59.50
2023-09-12T09:55:36.140Z,59.40
2023-09-12T09:58:04.018Z,59.40
2023-09-12T10:00:34.449Z,59.30
2023-09-12T10:03:03.999Z,59.60
2023-09-12T10:05:33.500Z,59.70
2023-09-12T10:08:03.634Z,59.40
2023-09-12T10:10:31.538Z,59.40
2023-09-12T10:12:59.502Z,59.40
2023-09-12T10:15:32.033Z,59.20
2023-09-12T10:18:14.408Z,59.10
2023-09-12T10:20:53.398Z,59.10
2023-09-12T10:23:28.680Z,59.00
2023-09-12T10:25:58.104Z,59.10
2023-09-12T10:28:27.001Z,59.00
2023-09-12T10:30:55.082Z,58.90
2023-09-12T10:33:22.119Z,58.70
2023-09-12T10:35:50.024Z,58.50
2023-09-12T10:38:19.395Z,58.50
2023-09-12T10:40:48.563Z,58.40
2023-09-12T10:43:16.329Z,58.30
2023-09-12T10:45:44.381Z,58.20
2023-09-12T10:48:12.466Z,58.20
2023-09-12T10:50:40.795Z,58.10
2023-09-12T10:53:15.354Z,57.80
2023-09-12T10:55:43.140Z,57.90
2023-09-12T10:58:14.114Z,57.80
2023-09-12T11:00:41.819Z,57.70
2023-09-12T11:03:30.550Z,58.10
2023-09-12T11:05:57.652Z,58.20
2023-09-12T11:08:25.187Z,58.60
2023-09-12T11:11:22.775Z,59.50
2023-09-12T11:14:04.507Z,59.50
2023-09-12T11:16:32.204Z,59.20
2023-09-12T11:19:17.526Z,59.20
2023-09-12T11:21:45.837Z,59.90
2023-09-12T11:24:14.707Z,60.10
2023-09-12T11:26:58.573Z,59.90
2023-09-12T11:29:37.545Z,60.90
2023-09-12T11:32:05.704Z,60.80
2023-09-12T11:34:41.868Z,60.60
2023-09-12T11:37:09.045Z,60.90
2023-09-12T11:39:37.761Z,60.50
2023-09-12T11:42:05.441Z,60.30
2023-09-12T11:44:33.315Z,60.50
2023-09-12T11:47:08.604Z,60.30
2023-09-12T11:49:42.365Z,60.80
2023-09-12T11:52:11.181Z,60.50
2023-09-12T11:54:38.777Z,60.50
2023-09-12T11:57:05.836Z,60.40
2023-09-12T11:59:33.114Z,60.10
2023-09-12T12:01:59.925Z,60.10
2023-09-12T12:04:27.098Z,60.50
2023-09-12T12:06:54.322Z,60.10
2023-09-12T12:09:21.285Z,60.40
2023-09-12T12:11:48.340Z,60.10
2023-09-12T12:14:16.714Z,60.00
2023-09-12T12:16:44.769Z,60.00
2023-09-12T12:19:12.823Z,59.90
2023-09-12T12:21:43.170Z,59.80
2023-09-12T12:24:14.168Z,59.50
2023-09-12T12:26:47.137Z,59.40
2023-09-12T12:29:14.544Z,59.20
2023-09-12T12:31:41.457Z,59.10
2023-09-12T12:35:37.901Z,59.10
2023-09-12T12:36:58.839Z,58.90
2023-09-12T12:39:26.562Z,58.70
2023-09-12T12:41:54.846Z,58.50
2023-09-12T12:44:22.776Z,58.50
2023-09-12T12:46:54.576Z,58.40
2023-09-12T12:49:22.485Z,58.50
2023-09-12T12:51:50.056Z,58.40
2023-09-12T12:54:17.074Z,58.30
2023-09-12T12:56:46.656Z,58.30
2023-09-12T12:59:13.548Z,58.20
2023-09-12T13:01:40.523Z,58.20
2023-09-12T13:04:09.114Z,58.20
2023-09-12T13:06:37.299Z,58.30
2023-09-12T13:09:07.086Z,58.20
2023-09-12T13:11:37.360Z,58.30
2023-09-12T13:14:10.763Z,58.30
2023-09-12T13:16:40.487Z,58.40
2023-09-12T13:19:07.782Z,58.50
2023-09-12T13:21:34.619Z,58.50
2023-09-12T13:24:02.814Z,58.40
2023-09-12T13:26:30.554Z,58.40
2023-09-12T13:28:58.277Z,58.50
2023-09-12T13:31:25.162Z,58.40
2023-09-12T13:33:51.943Z,58.60
2023-09-12T13:36:18.736Z,58.50
2023-09-12T13:38:48.550Z,58.40
2023-09-12T13:41:15.362Z,58.40
2023-09-12T13:43:43.018Z,58.30
2023-09-12T13:46:11.416Z,58.30
2023-09-12T13:48:38.558Z,58.20
2023-09-12T13:51:05.322Z,58.20
2023-09-12T13:53:32.714Z,58.20
2023-09-12T13:56:02.544Z,57.90
2023-09-12T13:58:38.582Z,57.80
2023-09-12T14:01:06.187Z,57.70
2023-09-12T14:03:40.858Z,57.20
2023-09-12T14:06:07.973Z,57.40
2023-09-12T14:08:34.992Z,57.70
2023-09-12T14:11:02.088Z,57.70
2023-09-12T14:15:56.830Z,57.70
2023-09-12T14:18:24.482Z,57.40
2023-09-12T14:20:53.614Z,57.30
2023-09-12T14:23:22.540Z,57.40
2023-09-12T14:25:49.910Z,57.40
2023-09-12T14:28:17.001Z,57.40
2023-09-12T14:30:46.441Z,57.40
2023-09-12T14:33:16.249Z,57.30
2023-09-12T14:35:45.698Z,57.30
2023-09-12T14:38:12.759Z,57.10
2023-09-12T14:40:43.319Z,57.00
2023-09-12T14:43:11.894Z,57.00
2023-09-12T14:45:39.445Z,57.00
2023-09-12T14:48:07.151Z,56.80
2023-09-12T14:50:42.018Z,56.80
2023-09-12T14:53:11.284Z,56.70
2023-09-12T14:55:38.112Z,56.70
2023-09-12T14:58:04.950Z,56.60
2023-09-12T15:00:31.860Z,56.20
2023-09-12T15:02:58.800Z,55.70
2023-09-12T15:05:25.675Z,56.00
2023-09-12T15:07:52.432Z,56.20
2023-09-12T15:10:19.629Z,56.10
2023-09-12T15:12:46.444Z,56.00
2023-09-12T15:15:13.548Z,56.00
2023-09-12T15:17:41.486Z,56.10
2023-09-12T15:20:08.891Z,56.30
2023-09-12T15:22:36.066Z,56.10
2023-09-12T15:25:04.081Z,56.10
2023-09-12T15:27:31.003Z,55.90
2023-09-12T15:29:57.734Z,55.10
2023-09-12T15:32:24.727Z,55.50
2023-09-12T15:34:51.638Z,55.50
2023-09-12T15:37:22.601Z,55.70
2023-09-12T15:39:50.071Z,56.00
2023-09-12T15:42:32.077Z,56.00
2023-09-12T15:45:03.588Z,56.20
2023-09-12T15:47:31.218Z,55.40
2023-09-12T15:49:58.102Z,54.80
2023-09-12T15:52:24.925Z,54.70
2023-09-12T15:54:53.792Z,54.70
2023-09-12T15:57:20.993Z,54.80
2023-09-12T15:59:49.249Z,54.90
2023-09-12T16:02:17.270Z,54.90
2023-09-12T16:04:44.180Z,54.90
2023-09-12T16:07:10.995Z,55.20
2023-09-12T16:09:37.732Z,55.20
2023-09-12T16:12:05.067Z,55.30
2023-09-12T16:14:32.098Z,55.30
2023-09-12T16:17:01.594Z,55.10
2023-09-12T16:19:28.586Z,55.20
2023-09-12T16:21:55.402Z,55.10
2023-09-12T16:24:23.376Z,55.00
2023-09-12T16:26:50.423Z,55.10
2023-09-12T16:29:17.300Z,55.30
2023-09-12T16:31:44.298Z,55.40
2023-09-12T16:34:11.113Z,55.60
2023-09-12T16:36:38.121Z,55.80
2023-09-12T16:39:04.837Z,56.00
2023-09-12T16:41:34.154Z,56.10
2023-09-12T16:44:01.002Z,56.20
2023-09-12T16:46:27.790Z,56.20
2023-09-12T16:48:54.631Z,56.20
2023-09-12T16:51:22.278Z,56.30
2023-09-12T16:53:51.028Z,56.10
2023-09-12T16:56:17.918Z,55.70
2023-09-12T16:58:44.674Z,56.00
2023-09-12T17:01:11.436Z,55.50
2023-09-12T17:03:38.309Z,55.80
2023-09-12T17:06:05.383Z,55.50
2023-09-12T17:08:32.095Z,55.80
2023-09-12T17:10:58.860Z,55.70
2023-09-12T17:13:25.662Z,55.60
2023-09-12T17:15:52.416Z,55.30
2023-09-12T17:18:19.220Z,55.20
2023-09-12T17:20:45.978Z,54.90
2023-09-12T17:23:12.714Z,54.70
2023-09-12T17:25:39.464Z,54.80
2023-09-12T17:28:06.830Z,54.90
2023-09-12T17:30:33.649Z,54.80
2023-09-12T17:33:01.657Z,55.60
2023-09-12T17:35:28.412Z,55.10
2023-09-12T17:37:55.106Z,55.20
2023-09-12T17:40:23.330Z,55.30
2023-09-12T17:42:50.129Z,55.10
2023-09-12T17:45:16.921Z,55.30
2023-09-12T17:47:43.658Z,55.50
2023-09-12T17:50:11.209Z,55.70
2023-09-12T17:52:39.017Z,55.80
2023-09-12T17:55:05.926Z,55.90
2023-09-12T17:57:32.627Z,56.00
2023-09-12T17:59:59.480Z,56.20
2023-09-12T18:02:26.637Z,56.30
2023-09-12T18:04:53.843Z,56.40
2023-09-12T18:07:22.348Z,56.50
2023-09-12T18:09:51.201Z,56.50
2023-09-12T18:12:18.090Z,56.70
2023-09-12T18:14:45.618Z,56.80
2023-09-12T18:17:12.504Z,56.80
2023-09-12T18:19:39.295Z,57.10
2023-09-12T18:22:06.158Z,57.20
2023-09-12T18:24:33.073Z,57.30
2023-09-12T18:26:59.778Z,57.30
2023-09-12T18:29:27.063Z,57.30
2023-09-12T18:31:54.502Z,57.50
2023-09-12T18:34:22.022Z,57.60
2023-09-12T18:36:48.825Z,57.90
2023-09-12T18:39:15.660Z,58.20
2023-09-12T18:41:42.493Z,58.50
2023-09-12T18:44:09.282Z,58.70
2023-09-12T18:46:36.116Z,59.10
2023-09-12T18:49:04.204Z,59.30
2023-09-12T18:51:30.998Z,59.30
2023-09-12T18:53:57.802Z,59.40
2023-09-12T18:56:24.487Z,59.70
2023-09-12T18:58:51.264Z,59.80
2023-09-12T19:01:18.114Z,59.90
2023-09-12T19:03:45.511Z,60.00
2023-09-12T19:06:12.511Z,60.00
2023-09-12T19:08:41.742Z,60.00
2023-09-12T19:11:09.535Z,60.20
2023-09-12T19:13:36.400Z,60.30
2023-09-12T19:16:03.966Z,60.40
2023-09-12T19:18:31.842Z,60.60
2023-09-12T19:20:58.787Z,60.50
2023-09-12T19:23:25.525Z,60.60
2023-09-12T19:25:52.330Z,60.70
2023-09-12T19:28:19.196Z,60.70
2023-09-12T19:30:46.077Z,60.70
2023-09-12T19:33:12.936Z,60.80
2023-09-12T19:35:41.898Z,60.90
2023-09-12T19:38:09.162Z,61.00
2023-09-12T19:40:38.029Z,61.10
2023-09-12T19:43:05.011Z,61.20
2023-09-12T19:45:34.406Z,61.40
2023-09-12T19:48:02.091Z,61.30
2023-09-12T19:50:32.362Z,61.20
2023-09-12T19:52:59.240Z,60.90
2023-09-12T19:55:26.579Z,60.80
2023-09-12T19:57:53.732Z,60.70
2023-09-12T20:00:20.625Z,60.60
2023-09-12T20:02:49.906Z,60.50
2023-09-12T20:05:21.653Z,60.50
2023-09-12T20:07:50.594Z,60.30
2023-09-12T20:10:22.571Z,60.20
2023-09-12T20:12:51.401Z,60.00
2023-09-12T20:15:18.279Z,60.00
2023-09-12T20:17:50.620Z,60.00
2023-09-12T20:20:20.396Z,60.00
2023-09-12T20:22:47.153Z,59.90
2023-09-12T20:25:13.869Z,59.90
2023-09-12T20:27:40.818Z,59.80
2023-09-12T20:30:08.245Z,59.70
2023-09-12T20:32:47.557Z,59.70
2023-09-12T20:35:19.004Z,59.70
2023-09-12T20:37:46.600Z,59.70
2023-09-12T20:40:13.351Z,59.60
2023-09-12T20:42:40.759Z,59.50
2023-09-12T20:45:07.879Z,59.50
2023-09-12T20:47:34.676Z,59.50
2023-09-12T20:50:04.310Z,59.50
2023-09-12T20:52:31.086Z,59.40
2023-09-12T20:54:58.021Z,59.40
2023-09-12T20:57:24.806Z,59.30
2023-09-12T20:59:51.609Z,59.30
2023-09-12T21:02:18.331Z,59.30
2023-09-12T21:04:46.719Z,59.20
2023-09-12T21:07:15.530Z,59.20
2023-09-12T21:09:44.103Z,59.30
2023-09-12T21:12:10.840Z,59.30
2023-09-12T21:14:37.808Z,59.30
2023-09-12T21:17:04.878Z,59.30
2023-09-12T21:19:32.127Z,59.30
2023-09-12T21:22:00.797Z,59.30
2023-09-12T21:24:29.025Z,59.30
2023-09-12T21:26:55.741Z,59.30
2023-09-12T21:29:22.549Z,59.30
2023-09-12T21:31:49.529Z,59.20
2023-09-12T21:34:16.360Z,59.30
2023-09-12T21:36:43.341Z,59.30
2023-09-12T21:39:11.430Z,59.30
2023-09-12T21:41:38.166Z,59.30
2023-09-12T21:44:05.275Z,59.30
2023-09-12T21:46:32.170Z,59.30
2023-09-12T21:48:59.101Z,59.30
2023-09-12T21:51:27.447Z,59.30
2023-09-12T21:53:54.216Z,59.30
2023-09-12T21:56:20.927Z,59.30
2023-09-12T21:58:47.594Z,59.30
2023-09-12T22:01:14.531Z,59.30
2023-09-12T22:03:42.009Z,59.30
2023-09-12T22:06:08.991Z,59.30
2023-09-12T22:08:35.866Z,59.40
2023-09-12T22:11:02.634Z,59.40
2023-09-12T22:13:29.704Z,59.30
2023-09-12T22:15:56.491Z,59.30
2023-09-12T22:18:25.419Z,59.30
2023-09-12T22:20:52.444Z,59.20
2023-09-12T22:23:19.779Z,59.20
2023-09-12T22:25:46.504Z,59.10
2023-09-12T22:28:14.315Z,59.10
2023-09-12T22:30:42.112Z,59.10
2023-09-12T22:33:10.392Z,59.00
2023-09-12T22:35:37.190Z,59.10
2023-09-12T22:38:04.038Z,59.00
2023-09-12T22:40:30.712Z,59.10
2023-09-12T22:42:57.480Z,59.10
2023-09-12T22:45:24.342Z,59.00
2023-09-12T22:47:51.040Z,59.00
2023-09-12T22:50:17.786Z,59.10
2023-09-12T22:52:44.504Z,58.90
2023-09-12T22:55:11.884Z,59.00
2023-09-12T22:57:38.771Z,59.00
2023-09-12T23:00:08.456Z,59.00
2023-09-12T23:02:35.203Z,58.90
2023-09-12T23:05:02.073Z,59.00
2023-09-12T23:07:29.075Z,59.00
2023-09-12T23:09:55.923Z,59.00
2023-09-12T23:12:22.755Z,58.90
2023-09-12T23:14:54.918Z,59.00
2023-09-12T23:17:22.507Z,59.00
2023-09-12T23:19:49.311Z,59.10
2023-09-12T23:22:16.261Z,59.10
2023-09-12T23:24:43.086Z,59.20
2023-09-12T23:27:09.856Z,59.10
2023-09-12T23:29:36.574Z,59.20
2023-09-12T23:32:03.846Z,59.20
2023-09-12T23:34:30.749Z,59.20
2023-09-12T23:36:57.558Z,59.20
2023-09-12T23:39:25.263Z,59.30
2023-09-12T23:41:53.812Z,59.20
2023-09-12T23:44:20.554Z,59.20
2023-09-12T23:46:47.619Z,59.20
2023-09-12T23:49:14.525Z,59.20
2023-09-12T23:51:42.909Z,59.20
2023-09-12T23:54:11.423Z,59.20
2023-09-12T23:56:40.863Z,59.20
2023-09-12T23:59:07.856Z,59.20
